Time;durP1;ratioP1;P1;durP2;ratioP2;P2;SDS_P1;SDS_P2;PMS_P1;PMS_P2;Temp;Humidity;BMP_temperature;BMP_pressure;BME280_temperature;BME280_humidity;BME280_pressure;Samples;Min_cycle;Max_cycle;Signal;HPM_P1;HPM_P2
2022/06/13 04:22:54;;;;;;;5.93;4.25;;;;;;;15.28;100.00;100580.94;5091591;28;20194;-80
2022/06/13 04:25:33;;;;;;;10.10;4.30;;;;;;;15.29;100.00;100571.84;5095479;28;20064;-80
2022/06/13 04:28:22;;;;;;;6.38;4.03;;;;;;;15.35;100.00;100580.97;5101294;28;20099;-80
2022/06/13 04:30:50;;;;;;;5.93;3.67;;;;;;;15.35;100.00;100581.78;5104036;28;20028;-81
2022/06/13 04:35:46;;;;;;;5.13;3.35;;;;;;;15.45;100.00;100582.28;5026539;28;20393;-75
2022/06/13 04:38:15;;;;;;;5.13;3.70;;;;;;;15.45;100.00;100586.81;5028891;28;20068;-76
2022/06/13 04:40:45;;;;;;;9.05;4.07;;;;;;;15.54;100.00;100592.88;5029125;28;20491;-76
2022/06/13 04:43:13;;;;;;;6.05;3.55;;;;;;;15.48;100.00;100589.09;5011446;28;20172;-76
2022/06/13 04:45:58;;;;;;;5.93;3.30;;;;;;;15.54;100.00;100601.75;5030842;28;20026;-78
2022/06/13 04:48:24;;;;;;;6.30;4.07;;;;;;;15.54;100.00;100599.06;5019876;28;20043;-76
2022/06/13 04:50:55;;;;;;;5.03;3.70;;;;;;;15.56;100.00;100607.75;5029287;28;20038;-77
2022/06/13 04:53:25;;;;;;;5.75;3.75;;;;;;;15.58;100.00;100608.38;5028602;28;20648;-76
2022/06/13 04:55:53;;;;;;;5.38;3.40;;;;;;;15.63;100.00;100611.31;5029895;28;20069;-78
2022/06/13 04:58:29;;;;;;;8.02;3.92;;;;;;;15.73;100.00;100616.34;5029128;28;20053;-77
2022/06/13 05:01:05;;;;;;;6.65;4.00;;;;;;;15.76;100.00;100615.94;5011668;28;20117;-77
2022/06/13 05:03:35;;;;;;;7.13;3.30;;;;;;;15.89;100.00;100628.63;5028617;28;20140;-77
2022/06/13 05:06:13;;;;;;;6.88;3.38;;;;;;;15.92;100.00;100631.75;5029493;28;20072;-77
2022/06/13 05:08:40;;;;;;;8.32;3.25;;;;;;;15.90;93.39;100620.34;5029385;28;20059;-78
2022/06/13 05:11:23;;;;;;;4.82;2.97;;;;;;;16.06;92.41;100638.00;5013765;28;20046;-76
2022/06/13 05:13:52;;;;;;;6.45;3.30;;;;;;;16.12;97.88;100645.28;5013060;28;20060;-75
2022/06/13 05:16:33;;;;;;;6.97;3.60;;;;;;;16.22;97.82;100645.72;5011230;28;20045;-78
2022/06/13 05:19:22;;;;;;;10.90;3.63;;;;;;;16.28;97.33;100633.34;5029238;28;20030;-77
2022/06/13 05:22:19;;;;;;;8.90;3.22;;;;;;;16.32;91.01;100637.31;5029631;28;20120;-77
2022/06/13 05:24:48;;;;;;;;;;;;;;;16.35;92.83;100642.25;5030264;28;20104;-77
2022/06/13 05:27:13;;;;;;;5.93;3.20;;;;;;;16.41;92.62;100643.31;5024559;28;19914;-80
2022/06/13 05:29:38;;;;;;;6.28;3.33;;;;;;;16.41;90.16;100641.44;5022347;28;20042;-81
2022/06/13 05:32:10;;;;;;;7.07;3.33;;;;;;;16.41;82.18;100648.69;5031590;28;20046;-82
2022/06/13 05:34:40;;;;;;;6.85;3.00;;;;;;;16.48;80.94;100657.59;4999916;28;20121;-81
2022/06/13 05:37:06;;;;;;;6.78;2.92;;;;;;;16.50;83.87;100659.09;5017240;28;20065;-82
2022/06/13 05:39:35;;;;;;;8.95;3.33;;;;;;;16.57;82.11;100667.16;5000302;28;20486;-81
2022/06/13 05:42:01;;;;;;;6.50;3.10;;;;;;;16.63;86.91;100671.75;5018957;28;20037;-82
2022/06/13 05:44:26;;;;;;;9.45;3.30;;;;;;;16.68;80.46;100665.72;5018805;28;20041;-81
2022/06/13 05:46:52;;;;;;;7.65;3.42;;;;;;;16.77;77.80;100667.25;4984890;28;20041;-81
2022/06/13 05:49:17;;;;;;;7.30;3.22;;;;;;;16.81;73.56;100663.94;5018425;28;20030;-82
2022/06/13 05:51:43;;;;;;;10.02;3.13;;;;;;;16.81;72.45;100672.00;5017041;28;20065;-81
2022/06/13 05:54:10;;;;;;;4.78;2.58;;;;;;;16.92;72.54;100669.75;5019060;28;20037;-82
2022/06/13 05:56:36;;;;;;;7.87;3.03;;;;;;;17.01;71.83;100674.72;5019540;28;20045;-82
2022/06/13 05:59:02;;;;;;;10.27;3.35;;;;;;;17.47;69.79;100675.78;5001842;28;20084;-83
2022/06/13 06:01:27;;;;;;;5.63;2.60;;;;;;;17.51;66.69;100679.72;5000179;28;20041;-81
2022/06/13 06:03:53;;;;;;;9.35;3.17;;;;;;;17.32;67.07;100681.38;5018090;28;20041;-81
2022/06/13 06:06:23;;;;;;;7.03;3.13;;;;;;;17.30;66.72;100678.09;5017923;28;20403;-82
2022/06/13 06:08:50;;;;;;;7.35;2.65;;;;;;;17.32;65.78;100681.38;5018839;28;20042;-82
2022/06/13 06:11:15;;;;;;;7.32;2.97;;;;;;;17.39;65.68;100692.16;5023031;28;20030;-80
2022/06/13 06:13:41;;;;;;;7.05;3.22;;;;;;;17.38;68.09;100685.94;5016813;28;20033;-81
2022/06/13 06:16:06;;;;;;;8.25;2.72;;;;;;;17.48;69.46;100689.06;5016933;28;20038;-80
2022/06/13 06:18:33;;;;;;;12.00;3.20;;;;;;;17.44;66.63;100679.75;4999501;28;20042;-80
2022/06/13 06:20:58;;;;;;;9.27;3.00;;;;;;;17.46;66.50;100688.44;5000024;28;20037;-81
2022/06/13 06:23:24;;;;;;;5.70;2.63;;;;;;;17.59;66.21;100695.69;4998720;28;20046;-81
2022/06/13 06:25:49;;;;;;;5.00;3.05;;;;;;;17.59;66.54;100693.81;4999569;28;20492;-82
2022/06/13 06:28:21;;;;;;;6.03;2.88;;;;;;;17.61;71.41;100696.31;5017183;28;20463;-80
2022/06/13 06:30:46;;;;;;;6.82;2.85;;;;;;;17.62;64.19;100697.97;5000162;28;20045;-80
2022/06/13 06:33:12;;;;;;;11.00;4.30;;;;;;;17.70;65.48;100708.53;5017019;28;20053;-80
2022/06/13 06:35:39;;;;;;;7.88;3.20;;;;;;;17.81;64.96;100707.09;4999557;28;20045;-81
2022/06/13 06:38:06;;;;;;;13.85;4.00;;;;;;;17.86;66.63;100709.97;5017597;28;20041;-80
2022/06/13 06:40:32;;;;;;;5.30;2.78;;;;;;;17.88;66.45;100708.75;5017210;28;20030;-80
2022/06/13 06:42:57;;;;;;;8.30;3.13;;;;;;;17.93;63.45;100709.97;5017029;28;20119;-82
2022/06/13 06:45:24;;;;;;;9.43;2.90;;;;;;;17.93;62.98;100715.34;4998896;28;20045;-81
2022/06/13 06:47:50;;;;;;;6.17;2.80;;;;;;;17.88;63.02;100708.75;5018121;28;20065;-80
2022/06/13 06:50:18;;;;;;;7.97;3.25;;;;;;;17.84;65.17;100718.28;5016499;28;20435;-81
2022/06/13 06:52:44;;;;;;;6.18;2.83;;;;;;;17.79;61.36;100706.47;4999047;28;20034;-81
2022/06/13 07:00:45;;;;;;;15.27;3.10;;;;;;;18.06;63.18;100716.19;5017145;28;20038;-81
2022/06/13 07:03:11;;;;;;;12.43;2.90;;;;;;;18.11;63.19;100708.25;5016568;28;20068;-81
2022/06/13 07:05:37;;;;;;;7.15;2.70;;;;;;;18.11;60.18;100708.25;5017618;28;20700;-81
2022/06/13 07:08:02;;;;;;;4.97;3.00;;;;;;;18.12;59.86;100709.91;5016189;28;20065;-81
2022/06/13 07:10:28;;;;;;;8.02;3.40;;;;;;;18.22;63.38;100709.50;4998196;28;20053;-80
2022/06/13 07:12:53;;;;;;;8.32;3.50;;;;;;;18.27;62.87;100698.91;4997659;28;20136;-81
2022/06/13 07:15:19;;;;;;;11.90;3.53;;;;;;;18.33;62.37;100710.72;5018252;28;20041;-78
2022/06/13 07:17:45;;;;;;;5.88;2.63;;;;;;;18.40;60.90;100703.41;5017543;28;20056;-81
2022/06/13 07:20:11;;;;;;;7.95;2.95;;;;;;;18.47;60.19;100709.63;5018097;28;20100;-81
2022/06/13 07:22:45;;;;;;;7.63;2.80;;;;;;;18.53;60.61;100719.56;5020848;28;20137;-81
2022/06/13 07:25:16;;;;;;;5.30;2.80;;;;;;;18.57;62.22;100706.44;5016440;28;20034;-80
2022/06/13 07:27:41;;;;;;;9.45;3.08;;;;;;;18.64;58.88;100708.06;5016821;28;20091;-82
2022/06/13 07:30:07;;;;;;;8.65;3.35;;;;;;;18.75;58.80;100711.16;4998095;28;20037;-80
2022/06/13 07:32:33;;;;;;;8.82;2.70;;;;;;;18.85;55.81;100714.25;4997978;28;20050;-81
2022/06/13 07:35:01;;;;;;;6.07;2.53;;;;;;;18.90;56.25;100707.13;5011573;28;20034;-82
2022/06/13 07:40:12;;;;;;;8.27;3.10;;;;;;;19.12;57.23;100718.44;5005888;28;20035;-82
2022/06/13 07:42:48;;;;;;;6.97;2.40;;;;;;;19.22;56.51;100726.88;5017028;28;20132;-81
2022/06/13 07:45:18;;;;;;;6.75;2.53;;;;;;;19.19;53.86;100716.50;5004153;28;20041;-81
2022/06/13 07:47:44;;;;;;;5.53;2.92;;;;;;;19.32;54.43;100712.06;5026847;28;20034;-81
2022/06/13 07:50:14;;;;;;;6.70;2.88;;;;;;;19.32;55.73;100715.59;5025230;28;20069;-80
2022/06/13 07:52:39;;;;;;;8.38;2.75;;;;;;;19.39;56.12;100710.13;5024102;28;20030;-79
2022/06/13 07:55:06;;;;;;;5.47;2.72;;;;;;;19.50;56.24;100712.13;5019150;28;20495;-78
2022/06/13 07:57:32;;;;;;;4.10;2.50;;;;;;;19.67;55.93;100715.94;5018848;28;20038;-79
2022/06/13 07:59:57;;;;;;;9.88;3.20;;;;;;;19.71;53.67;100713.66;5015969;28;20549;-78
2022/06/13 08:02:29;;;;;;;10.48;3.28;;;;;;;19.83;54.02;100727.25;5014653;28;20022;-78
2022/06/13 08:04:54;;;;;;;6.55;2.85;;;;;;;20.01;53.58;100719.16;5015378;28;20498;-78
2022/06/13 08:07:20;;;;;;;11.70;3.30;;;;;;;20.05;52.45;100715.78;5013387;28;20034;-77
2022/06/13 08:09:45;;;;;;;6.97;2.40;;;;;;;20.28;52.71;100725.97;5013245;28;20061;-77
2022/06/13 08:12:14;;;;;;;12.05;3.03;;;;;;;20.43;54.13;100722.03;5013212;28;20037;-78
2022/06/13 08:14:45;;;;;;;9.85;2.50;;;;;;;20.50;53.39;100726.34;5013760;28;20416;-77
2022/06/13 08:17:11;;;;;;;8.25;2.70;;;;;;;20.31;50.54;100717.38;5011683;28;20048;-77
2022/06/13 08:19:37;;;;;;;7.55;3.15;;;;;;;20.26;51.43;100716.38;5012809;28;20052;-78
2022/06/13 08:22:02;;;;;;;5.97;3.10;;;;;;;20.23;53.38;100716.84;5013296;28;20042;-77
2022/06/13 08:24:28;;;;;;;8.45;2.90;;;;;;;20.00;52.20;100723.75;5014282;28;20121;-78
2022/06/13 08:26:53;;;;;;;6.72;2.85;;;;;;;20.10;52.59;100714.31;5012546;28;20073;-78
2022/06/13 08:29:19;;;;;;;11.55;3.10;;;;;;;20.40;52.82;100723.28;5012272;28;20084;-77
2022/06/13 08:31:44;;;;;;;7.60;3.10;;;;;;;20.67;52.30;100718.44;5013667;28;20042;-77
2022/06/13 08:34:09;;;;;;;7.00;2.58;;;;;;;20.86;52.18;100720.06;5011195;28;20034;-77
2022/06/13 08:36:35;;;;;;;7.82;3.10;;;;;;;20.98;51.00;100709.25;5013304;28;20030;-78
2022/06/13 08:39:00;;;;;;;6.78;3.03;;;;;;;21.10;50.93;100718.22;5013156;28;20030;-77
2022/06/13 08:41:41;;;;;;;6.80;2.78;;;;;;;21.47;49.52;100717.31;5012528;28;20099;-77
2022/06/13 08:44:50;;;;;;;7.78;2.88;;;;;;;21.76;47.58;100720.97;5013933;28;20117;-77
2022/06/13 08:47:23;;;;;;;4.40;2.53;;;;;;;21.86;47.38;100732.06;4981063;28;20100;-78
2022/06/13 08:50:16;;;;;;;5.53;2.70;;;;;;;21.83;47.17;100727.09;5015529;28;20491;-77
2022/06/13 08:53:04;;;;;;;8.90;2.80;;;;;;;21.97;48.27;100725.78;5012435;28;20060;-78
2022/06/13 08:55:40;;;;;;;7.32;2.58;;;;;;;22.21;50.83;100724.75;5012266;28;20054;-78
2022/06/13 08:58:14;;;;;;;7.15;3.15;;;;;;;22.29;51.38;100722.72;5012787;28;20077;-78
2022/06/13 09:00:46;;;;;;;9.07;2.72;;;;;;;22.35;47.88;100728.00;5014429;28;20034;-79
2022/06/13 09:03:18;;;;;;;9.65;3.20;;;;;;;22.73;47.01;100721.19;5013552;28;20034;-79
2022/06/13 09:05:56;;;;;;;6.00;3.35;;;;;;;22.89;47.96;100736.75;5013817;28;20041;-79
2022/06/13 09:08:33;;;;;;;6.15;2.50;;;;;;;23.10;44.96;100731.69;5015604;28;20372;-79
2022/06/13 09:11:19;;;;;;;;;;;;;;;23.07;44.53;100724.00;5017810;28;20045;-78
2022/06/13 09:14:15;;;;;;;6.50;2.35;;;;;;;22.69;47.06;100723.56;5016668;28;20345;-79
2022/06/13 09:16:46;;;;;;;7.75;2.30;;;;;;;23.11;46.28;100722.47;5015463;28;20193;-79
2022/06/13 09:19:25;;;;;;;4.95;2.20;;;;;;;23.14;45.91;100728.22;5016988;28;20092;-77
2022/06/13 09:22:14;;;;;;;9.90;2.45;;;;;;;23.17;46.28;100733.19;5016821;28;20037;-79
2022/06/13 09:24:58;;;;;;;7.03;2.47;;;;;;;23.29;44.85;100736.66;5017342;28;20113;-79
2022/06/13 09:27:37;;;;;;;5.95;2.45;;;;;;;23.26;46.30;100737.13;4999397;28;20068;-79
2022/06/13 09:30:26;;;;;;;7.50;2.83;;;;;;;22.72;47.46;100735.81;5016929;28;20038;-78
2022/06/13 09:32:58;;;;;;;3.60;2.20;;;;;;;22.82;47.12;100741.47;5016682;28;20117;-79
2022/06/13 09:35:33;;;;;;;6.90;2.58;;;;;;;22.90;45.73;100726.72;5017143;28;20048;-78
2022/06/13 09:38:22;;;;;;;6.35;2.38;;;;;;;23.26;44.00;100730.88;5016231;28;20038;-78
2022/06/13 09:41:03;;;;;;;5.47;2.70;;;;;;;23.32;45.33;100723.63;5014212;28;20081;-78
2022/06/13 09:43:55;;;;;;;6.30;2.05;;;;;;;23.48;43.90;100728.28;5014616;28;20462;-78
2022/06/13 09:46:33;;;;;;;6.07;2.60;;;;;;;23.58;46.53;100714.00;5015564;28;20061;-79
2022/06/13 09:49:28;;;;;;;4.25;1.95;;;;;;;23.55;44.88;100720.78;5013734;28;20040;-78
2022/06/13 09:52:18;;;;;;;4.47;2.00;;;;;;;23.50;41.16;100718.78;5014607;28;20042;-77
2022/06/13 09:54:55;;;;;;;3.67;2.03;;;;;;;23.54;40.63;100714.53;5016081;28;20532;-78
2022/06/13 09:57:36;;;;;;;5.05;2.50;;;;;;;23.56;42.05;100717.81;5014639;28;20041;-78
2022/06/13 10:00:15;;;;;;;4.53;1.90;;;;;;;23.97;40.68;100718.44;5014483;28;20049;-77
2022/06/13 10:02:47;;;;;;;5.20;1.77;;;;;;;24.35;39.91;100716.81;5014709;28;20045;-78
2022/06/13 10:05:25;;;;;;;3.40;1.67;;;;;;;24.19;41.50;100714.91;5015315;28;20115;-78
2022/06/13 10:08:11;;;;;;;6.18;1.80;;;;;;;24.17;38.50;100722.53;5015975;28;20045;-78
2022/06/13 10:10:56;;;;;;;3.35;1.85;;;;;;;24.71;38.52;100725.38;5016737;28;20041;-79
2022/06/13 10:13:39;;;;;;;15.32;12.75;;;;;;;24.98;38.99;100709.91;5016437;28;20033;-78
2022/06/13 10:16:25;;;;;;;2.67;1.67;;;;;;;24.80;38.73;100718.44;5014870;28;20044;-78
2022/06/13 10:19:02;;;;;;;4.82;1.95;;;;;;;24.95;37.32;100715.84;5015239;28;20034;-79
2022/06/13 10:21:37;;;;;;;3.67;1.70;;;;;;;25.20;38.55;100720.75;5014522;28;20045;-78
2022/06/13 10:24:30;;;;;;;5.15;1.65;;;;;;;25.83;37.69;100723.75;5012900;28;20659;-77
2022/06/13 10:27:11;;;;;;;4.45;1.90;;;;;;;25.90;35.89;100721.63;5013556;28;20034;-77
2022/06/13 10:29:54;;;;;;;2.38;1.60;;;;;;;26.05;35.96;100724.44;5014027;28;20499;-77
2022/06/13 10:32:38;;;;;;;23.08;7.97;;;;;;;26.11;38.37;100720.66;5016249;28;20030;-78
2022/06/13 10:35:41;;;;;;;4.88;2.00;;;;;;;26.39;37.61;100718.59;5085049;22;20040;-72
2022/06/13 10:38:30;;;;;;;6.75;2.97;;;;;;;26.68;34.71;100717.09;5093602;28;20031;-73
2022/06/13 10:40:57;;;;;;;3.55;1.75;;;;;;;26.67;36.55;100714.59;5093411;28;20472;-72
2022/06/13 10:43:22;;;;;;;3.72;1.73;;;;;;;27.34;35.74;100718.31;5093135;28;20036;-73
2022/06/13 10:45:48;;;;;;;5.82;2.20;;;;;;;27.56;33.60;100707.91;5093360;28;20550;-72
2022/06/13 10:48:19;;;;;;;4.90;2.13;;;;;;;27.72;32.05;100714.25;5093290;28;20500;-72
2022/06/13 10:51:05;;;;;;;5.25;1.70;;;;;;;27.85;31.80;100711.75;5093298;28;20104;-73
2022/06/13 10:53:39;;;;;;;4.33;1.33;;;;;;;27.73;33.11;100713.94;5092840;28;20463;-72
2022/06/13 10:56:11;;;;;;;4.70;2.80;;;;;;;27.54;30.68;100718.31;5093382;28;20042;-72
2022/06/13 10:58:48;;;;;;;2.58;1.20;;;;;;;26.98;30.76;100726.44;5093376;28;20058;-72
2022/06/13 11:01:14;;;;;;;2.33;1.30;;;;;;;27.81;30.22;100720.78;5093168;28;20427;-72
2022/06/13 11:04:04;;;;;;;4.75;1.35;;;;;;;28.38;30.81;100705.88;5092681;28;20047;-73
2022/06/13 11:06:39;;;;;;;2.20;1.30;;;;;;;28.28;27.99;100701.19;5084670;28;20115;-72
2022/06/13 11:09:26;;;;;;;5.60;2.17;;;;;;;27.95;30.98;100707.34;5092853;28;20062;-72
2022/06/13 11:11:55;;;;;;;1.73;1.17;;;;;;;28.51;29.36;100704.44;5092562;28;20032;-72
2022/06/13 11:22:37;;;;;;;2.40;1.27;;;;;;;28.98;31.62;100711.31;5092851;28;20061;-72
2022/06/13 11:23:01;;;;;;;3.38;1.42;;;;;;;29.09;31.19;100704.66;5092646;28;20032;-72
2022/06/13 11:25:32;;;;;;;2.88;1.25;;;;;;;29.60;26.59;100702.31;5092658;28;20032;-73
2022/06/13 11:28:04;;;;;;;3.53;1.30;;;;;;;29.36;28.40;100705.00;5092736;28;20039;-72
2022/06/13 11:30:41;;;;;;;2.97;1.30;;;;;;;29.28;26.20;100700.13;5090743;28;20169;-72
2022/06/13 11:33:09;;;;;;;3.08;1.50;;;;;;;30.01;25.08;100696.41;5091177;28;20035;-73
2022/06/13 11:35:44;;;;;;;3.25;1.13;;;;;;;30.20;27.56;100691.00;5092328;28;20036;-73
2022/06/13 11:38:23;;;;;;;4.65;1.52;;;;;;;29.61;28.01;100706.72;5092366;28;20074;-72
2022/06/13 11:41:06;;;;;;;4.43;1.20;;;;;;;30.00;25.56;100692.84;5092725;28;20400;-73
2022/06/13 11:43:37;;;;;;;2.38;1.20;;;;;;;30.12;25.72;100695.19;5090831;28;20110;-73
2022/06/13 11:46:11;;;;;;;1.63;1.00;;;;;;;29.25;25.08;100686.16;5092452;28;20054;-73
2022/06/13 11:48:42;;;;;;;2.35;1.10;;;;;;;28.86;30.05;100701.47;5092320;28;20032;-72
2022/06/13 11:51:20;;;;;;;2.30;1.40;;;;;;;28.41;25.72;100693.50;5092255;28;20442;-72
2022/06/13 11:53:46;;;;;;;4.28;1.55;;;;;;;27.67;27.14;100676.72;5091931;28;20115;-72
2022/06/13 11:56:22;;;;;;;2.08;1.20;;;;;;;27.26;28.17;100681.41;5092179;28;20544;-72
2022/06/13 11:58:50;;;;;;;2.45;1.15;;;;;;;26.78;30.69;100688.97;5092681;28;20085;-73
2022/06/13 12:01:42;;;;;;;2.83;1.20;;;;;;;26.48;30.83;100690.53;5092259;28;20032;-72
2022/06/13 12:04:11;;;;;;;2.05;1.10;;;;;;;26.21;29.62;100690.69;5089406;28;20051;-72
2022/06/13 12:06:42;;;;;;;3.53;2.05;;;;;;;26.45;29.96;100687.50;5090694;28;20042;-73
2022/06/13 12:09:16;;;;;;;3.17;1.20;;;;;;;26.99;29.66;100682.44;5092334;28;20048;-71
2022/06/13 12:11:46;;;;;;;4.15;1.55;;;;;;;27.85;30.94;100681.63;5091804;28;20127;-72
2022/06/13 12:14:12;;;;;;;2.15;1.50;;;;;;;28.07;28.35;100672.25;5091906;28;20097;-73
2022/06/13 12:17:05;;;;;;;3.25;1.17;;;;;;;28.01;28.95;100681.59;5091838;28;20442;-72
2022/06/13 12:19:44;;;;;;;3.80;1.15;;;;;;;28.43;29.87;100677.59;5084430;28;20046;-72
2022/06/13 12:22:26;;;;;;;4.57;1.10;;;;;;;28.33;27.87;100676.56;5091571;28;20071;-73
2022/06/13 12:25:03;;;;;;;2.42;1.25;;;;;;;27.79;28.90;100682.75;5091757;28;20122;-73
2022/06/13 12:27:39;;;;;;;2.63;1.20;;;;;;;26.41;30.69;100683.69;5092045;28;20039;-72
2022/06/13 12:30:19;;;;;;;5.53;1.70;;;;;;;27.25;30.25;100680.56;5092140;28;20113;-73
2022/06/13 12:33:04;;;;;;;2.17;1.40;;;;;;;26.74;29.65;100683.25;5094281;28;20096;-79
2022/06/13 12:36:02;;;;;;;1.85;1.10;;;;;;;26.99;29.19;100689.81;5094495;28;20052;-80
2022/06/13 12:38:27;;;;;;;4.57;1.58;;;;;;;26.48;29.15;100689.72;5065851;28;20044;-79
2022/06/13 12:41:24;;;;;;;2.17;1.30;;;;;;;25.19;29.47;100682.88;5094967;28;20500;-79
2022/06/13 12:44:32;;;;;;;3.17;1.58;;;;;;;25.69;32.16;100691.44;5045042;28;20081;-79
2022/06/13 12:47:00;;;;;;;4.25;1.40;;;;;;;25.84;32.17;100690.75;5100392;28;20032;-80
2022/06/13 12:49:38;;;;;;;3.15;1.35;;;;;;;25.91;33.20;100683.16;5098501;28;20035;-79
2022/06/13 12:52:34;;;;;;;2.20;1.30;;;;;;;26.99;32.64;100684.34;5098638;28;20024;-79
2022/06/13 12:55:20;;;;;;;3.07;1.43;;;;;;;27.85;29.73;100678.91;5100260;28;20154;-79
2022/06/13 12:58:04;;;;;;;5.60;1.40;;;;;;;28.64;28.53;100685.44;5098703;28;20040;-79
2022/06/13 13:00:53;;;;;;;2.95;1.50;;;;;;;29.38;26.02;100680.00;5098327;28;20051;-80
2022/06/13 13:03:28;;;;;;;2.20;1.45;;;;;;;30.18;27.36;100682.22;5099106;28;20401;-78
2022/06/13 13:06:11;;;;;;;3.65;1.13;;;;;;;29.46;25.54;100679.38;5098287;28;20042;-79
2022/06/13 13:08:55;;;;;;;3.92;1.50;;;;;;;29.41;25.74;100682.19;5098848;28;20043;-78
2022/06/13 13:11:36;;;;;;;2.42;1.25;;;;;;;28.88;25.60;100684.75;5097994;28;20048;-79
2022/06/13 13:14:23;;;;;;;5.15;1.42;;;;;;;28.21;26.17;100684.25;5098583;28;20472;-79
2022/06/13 13:16:58;;;;;;;2.65;1.27;;;;;;;27.77;27.57;100676.72;5098989;28;20071;-78
2022/06/13 13:19:35;;;;;;;3.55;1.40;;;;;;;26.90;27.95;100681.34;5101774;28;20043;-79
2022/06/13 13:22:12;;;;;;;;;;;;;;;26.96;28.89;100676.72;5099778;28;20388;-79
2022/06/13 13:24:49;;;;;;;3.28;1.40;;;;;;;26.65;28.99;100673.91;5098446;28;20030;-79
2022/06/13 13:27:20;;;;;;;3.03;1.85;;;;;;;26.51;30.35;100681.78;5099022;28;20481;-77
2022/06/13 13:30:14;;;;;;;4.45;1.30;;;;;;;26.05;30.18;100683.50;5097749;28;20032;-78
2022/06/13 13:33:04;;;;;;;3.90;1.60;;;;;;;25.85;30.78;100672.47;5097337;28;20077;-79
2022/06/13 13:35:33;;;;;;;3.13;1.55;;;;;;;25.97;31.58;100675.81;5098976;28;20038;-79
2022/06/13 13:38:10;;;;;;;3.33;1.67;;;;;;;26.29;31.63;100672.97;5098396;28;20132;-80
2022/06/13 13:40:58;;;;;;;2.42;1.30;;;;;;;26.16;29.05;100662.53;5099243;28;20044;-79
2022/06/13 13:43:53;;;;;;;2.58;1.77;;;;;;;25.74;30.48;100670.75;5071657;28;20411;-79
2022/06/13 13:46:34;;;;;;;1.98;0.93;;;;;;;25.70;30.91;100673.19;5095986;28;20504;-79
2022/06/13 13:49:25;;;;;;;3.95;1.50;;;;;;;25.70;32.73;100668.53;5101186;28;20081;-80
2022/06/13 13:52:23;;;;;;;3.15;1.30;;;;;;;25.34;30.03;100672.91;5096965;28;20043;-79
2022/06/13 13:54:56;;;;;;;3.00;1.60;;;;;;;25.66;31.81;100669.31;5098106;28;20492;-79
2022/06/13 13:57:58;;;;;;;4.07;1.42;;;;;;;25.39;33.99;100675.69;5102281;28;20059;-79
2022/06/13 14:00:40;;;;;;;4.60;1.75;;;;;;;24.99;34.45;100681.56;5087262;28;20044;-80
2022/06/13 14:03:36;;;;;;;2.70;1.30;;;;;;;25.08;31.36;100665.59;5098584;28;20054;-80
2022/06/13 14:06:19;;;;;;;2.58;1.25;;;;;;;24.88;30.97;100666.19;5098741;28;20066;-79
2022/06/13 14:08:47;;;;;;;2.88;1.35;;;;;;;25.15;31.71;100661.56;5099640;28;20096;-79
2022/06/13 14:11:14;;;;;;;3.83;1.48;;;;;;;25.22;34.18;100663.25;5098464;28;20081;-79
2022/06/13 14:13:59;;;;;;;4.50;1.70;;;;;;;25.41;31.81;100656.31;5096807;28;20065;-78
2022/06/13 14:16:25;;;;;;;3.40;1.50;;;;;;;25.36;30.33;100656.28;5096512;28;20035;-78
2022/06/13 14:19:16;;;;;;;3.30;1.73;;;;;;;25.64;32.93;100669.59;5096030;28;20039;-74
2022/06/13 14:21:42;;;;;;;2.15;1.30;;;;;;;25.67;30.95;100669.03;5093803;28;20119;-72
2022/06/13 14:24:16;;;;;;;8.18;1.95;;;;;;;25.43;31.39;100667.81;5093979;28;20086;-71
2022/06/13 14:26:42;;;;;;;2.33;1.45;;;;;;;25.49;31.89;100661.28;5093915;28;20036;-71
2022/06/13 14:29:15;;;;;;;2.88;1.30;;;;;;;25.54;29.63;100660.50;5092511;28;20038;-72
2022/06/13 14:31:55;;;;;;;2.72;1.30;;;;;;;25.36;31.93;100657.09;5093711;28;20043;-71
2022/06/13 14:37:27;;;;;;;2.70;1.40;;;;;;;25.35;31.54;100646.47;5093991;28;20109;-71
2022/06/13 14:40:18;;;;;;;2.97;1.23;;;;;;;25.24;31.33;100652.94;5094050;28;20861;-72
2022/06/13 14:42:54;;;;;;;3.42;1.40;;;;;;;25.07;31.16;100647.59;5085073;28;20551;-71
2022/06/13 14:45:42;;;;;;;3.40;1.83;;;;;;;25.08;31.84;100650.06;5093697;28;20176;-70
2022/06/13 14:48:11;;;;;;;2.67;1.63;;;;;;;25.05;31.61;100647.06;5093434;28;20024;-71
2022/06/13 14:50:40;;;;;;;2.25;1.58;;;;;;;25.02;32.43;100644.81;5093450;28;20023;-70
2022/06/13 14:53:43;;;;;;;2.50;1.40;;;;;;;24.67;31.65;100642.56;5093175;28;20040;-73
2022/06/13 14:56:11;;;;;;;2.80;1.40;;;;;;;24.72;33.43;100654.34;5061597;28;20043;-72
2022/06/13 14:58:46;;;;;;;4.03;1.60;;;;;;;24.56;33.58;100655.25;5093505;28;20067;-72
2022/06/13 15:01:22;;;;;;;3.00;1.70;;;;;;;24.68;33.06;100645.03;5091875;28;20042;-73
2022/06/13 15:04:03;;;;;;;3.85;2.25;;;;;;;24.53;32.09;100642.97;5092969;28;20032;-73
2022/06/13 15:06:38;;;;;;;4.63;3.22;;;;;;;24.60;33.30;100645.50;5092537;28;20024;-74
2022/06/13 15:09:28;;;;;;;2.88;1.75;;;;;;;24.59;33.16;100652.84;5093371;28;20461;-73
2022/06/13 15:12:00;;;;;;;4.43;1.58;;;;;;;24.69;32.89;100648.56;5092821;28;20040;-73
2022/06/13 15:14:30;;;;;;;3.80;2.97;;;;;;;24.74;32.99;100648.63;5092909;28;20626;-73
2022/06/13 15:16:58;;;;;;;9.55;7.53;;;;;;;24.78;32.53;100638.88;5093366;28;20042;-73
2022/06/13 15:19:35;;;;;;;5.30;1.77;;;;;;;24.86;31.83;100636.50;5093808;28;20036;-73
2022/06/13 15:22:06;;;;;;;3.63;1.60;;;;;;;24.91;32.26;100635.72;5093154;28;20081;-73
2022/06/13 15:24:51;;;;;;;2.65;1.83;;;;;;;24.89;31.00;100630.53;5093135;28;20031;-73
2022/06/13 15:27:17;;;;;;;3.72;1.77;;;;;;;24.89;32.89;100635.16;5092633;28;20036;-73
2022/06/13 15:30:10;;;;;;;2.65;2.22;;;;;;;24.95;32.11;100638.75;5093116;28;20386;-72
2022/06/13 15:32:37;;;;;;;2.92;1.60;;;;;;;24.85;32.45;100636.75;5093627;28;20048;-73
2022/06/13 15:35:13;;;;;;;2.72;1.73;;;;;;;24.86;31.64;100641.13;5092442;28;20143;-72
2022/06/13 15:37:45;;;;;;;2.33;1.70;;;;;;;24.91;31.70;100638.47;5092972;28;20203;-73
2022/06/13 15:40:27;;;;;;;3.03;1.70;;;;;;;25.00;32.30;100642.34;5093260;28;20047;-72
2022/06/13 15:42:53;;;;;;;4.93;2.50;;;;;;;24.90;32.14;100629.44;5093424;28;20032;-73
2022/06/13 15:45:27;;;;;;;3.43;2.13;;;;;;;24.86;32.35;100631.06;5092469;28;20051;-72
2022/06/13 15:47:53;;;;;;;3.83;1.48;;;;;;;24.81;31.13;100627.44;5093660;28;20281;-72
2022/06/13 15:50:22;;;;;;;2.15;1.38;;;;;;;24.77;29.77;100627.13;5092392;28;20388;-73
2022/06/13 15:52:49;;;;;;;1.70;1.38;;;;;;;24.57;30.04;100627.75;5091917;28;20040;-73
2022/06/13 15:55:17;;;;;;;;;;;;;;;24.67;30.94;100626.22;5092767;28;20062;-73
2022/06/13 15:57:51;;;;;;;2.88;1.25;;;;;;;24.62;30.12;100616.09;5092318;28;20387;-73
2022/06/13 16:00:41;;;;;;;3.28;1.50;;;;;;;24.64;31.24;100617.47;5092158;28;20031;-73
2022/06/13 16:03:18;;;;;;;2.70;1.70;;;;;;;24.68;31.38;100636.03;5083979;28;20060;-71
2022/06/13 16:05:52;;;;;;;;;;;;;;;24.66;31.90;100622.69;5092712;28;20043;-72
2022/06/13 16:08:18;;;;;;;3.60;1.55;;;;;;;24.75;31.73;100620.31;5092235;28;19920;-72
2022/06/13 16:10:46;;;;;;;3.80;1.40;;;;;;;24.63;30.46;100615.84;5090659;28;20024;-74
2022/06/13 16:13:24;;;;;;;3.63;1.83;;;;;;;24.36;30.56;100621.28;5091689;28;20044;-73
2022/06/13 16:15:50;;;;;;;5.38;2.22;;;;;;;24.26;30.66;100620.31;5091813;28;20473;-72
2022/06/13 16:18:39;;;;;;;5.03;1.50;;;;;;;24.23;30.22;100618.09;5091712;28;20107;-72
2022/06/13 16:21:10;;;;;;;3.90;1.67;;;;;;;24.19;30.84;100620.53;5091850;28;20056;-72
2022/06/13 16:23:44;;;;;;;2.55;1.50;;;;;;;24.22;30.91;100613.72;5091798;28;20039;-76
2022/06/13 16:26:11;;;;;;;3.95;1.77;;;;;;;24.26;31.01;100617.59;5092676;28;20063;-76
2022/06/13 16:28:37;;;;;;;2.72;1.52;;;;;;;24.35;31.29;100621.53;5090769;28;20127;-76
2022/06/13 16:31:08;;;;;;;5.70;2.35;;;;;;;24.42;31.59;100618.63;5093170;28;20028;-75
2022/06/13 16:33:40;;;;;;;4.68;1.40;;;;;;;24.38;31.27;100612.03;5092358;28;20040;-76
2022/06/13 16:36:13;;;;;;;3.00;1.92;;;;;;;24.28;30.80;100612.72;5113968;22;20523;-76
2022/06/13 16:38:53;;;;;;;5.75;3.38;;;;;;;24.27;31.77;100616.53;5092841;28;20123;-75
2022/06/13 16:41:32;;;;;;;2.00;1.75;;;;;;;24.28;31.72;100618.16;5091691;28;20538;-77